Seneimaru — JG5357 — position and weather

sailwx.info

Track history (hours):
 
Tides and Currents Weather Stations Pressure Air Temp Water Temp Dewpoint Dewpoint Depression Visibility Wind Speed Wind Dir Waves Ship Positions

Seneimaru

Last reported at 2017-Feb-24 03:33 UTC. Time now 2017-Feb-24 03:54 UTC.
Position N 35°30' E 139°43'.

Length 72 m; draft 5.9 m.

Type: Cargo ship. MMSI: 431100477.

Date/timePositionNaut miles runAvg speedWind from/ knotsBaromVisibWave heightAir tempDewpointWater temp
2017-Feb-24 03:33N 35°30' E 139°43'0 0.0
2017-Feb-24 02:33N 35°30' E 139°43'0 0.0
2017-Feb-24 01:33N 35°30' E 139°43'0 0.0
2017-Feb-24 00:33N 35°30' E 139°43'0 0.0
2017-Feb-23 23:33N 35°30' E 139°43'0 0.0
2017-Feb-23 22:33N 35°30' E 139°43'4 3.6
2017-Feb-23 21:33N 35°27' E 139°43'5 5.1
2017-Feb-23 20:34N 35°22' E 139°44'0 0.0
2017-Feb-23 19:34N 35°22' E 139°44'0 0.0
2017-Feb-23 18:31N 35°21' E 139°44'0 0.0
2017-Feb-23 17:34N 35°22' E 139°44'0 0.0
2017-Feb-23 16:34N 35°21' E 139°44'0 0.0
2017-Feb-23 15:34N 35°22' E 139°44'0 0.0
2017-Feb-23 14:34N 35°22' E 139°44'0 0.0
2017-Feb-23 13:34N 35°22' E 139°44'0 0.0
2017-Feb-23 12:34N 35°21' E 139°44'0 0.0
2017-Feb-23 11:34N 35°22' E 139°44'0 0.1
2017-Feb-23 10:34N 35°22' E 139°44'0 0.1
2017-Feb-23 09:34N 35°22' E 139°44'0 0.0
2017-Feb-23 08:33N 35°22' E 139°44'0 0.1
2017-Feb-23 07:33N 35°22' E 139°44'0 0.1
2017-Feb-23 06:32N 35°22' E 139°44'0 0.0
2017-Feb-23 05:28N 35°22' E 139°44'0 0.0
2017-Feb-23 04:32N 35°22' E 139°44'0 0.0
2017-Feb-23 03:34N 35°22' E 139°44'0 0.0
2017-Feb-23 02:32N 35°22' E 139°44'0 0.0
2017-Feb-23 01:33N 35°22' E 139°44'0 0.0
2017-Feb-23 00:33N 35°22' E 139°44'0 0.0
2017-Feb-22 23:30N 35°22' E 139°44'0 0.0
2017-Feb-22 22:32N 35°22' E 139°44'0 0.0
2017-Feb-22 21:19N 35°22' E 139°44'1 1.1
2017-Feb-22 20:34N 35°21' E 139°44'1110.9
2017-Feb-22 19:33N 35°10' E 139°46'1212.4
2017-Feb-22 18:33N 34°58' E 139°43'1 0.0
2017-Feb-21 10:33N 34°59' E 139°43'1111.5
2017-Feb-21 09:33N 35°10' E 139°46'1111.0
2017-Feb-21 08:33N 35°21' E 139°43'1010.2
2017-Feb-21 07:33N 35°30' E 139°46'3 2.9
2017-Feb-21 06:33N 35°30' E 139°43'0 0.0
2017-Feb-21 05:33N 35°30' E 139°43'0 0.0
2017-Feb-21 04:33N 35°30' E 139°43'0 0.0
2017-Feb-21 03:33N 35°30' E 139°43'0 0.0
2017-Feb-21 02:33N 35°30' E 139°43'0 0.0
2017-Feb-21 01:33N 35°30' E 139°43'0 0.0
2017-Feb-21 00:33N 35°30' E 139°43'1 1.5
2017-Feb-20 23:34N 35°29' E 139°42'5 5.4
2017-Feb-20 22:34N 35°24' E 139°45'0 0.0
2017-Feb-20 21:33N 35°24' E 139°45'0 0.0
2017-Feb-20 20:33N 35°24' E 139°45'0 0.0
2017-Feb-20 19:33N 35°24' E 139°45'0 0.0
2017-Feb-20 18:33N 35°24' E 139°45'0 0.0
2017-Feb-20 17:33N 35°24' E 139°45'0 0.0
2017-Feb-20 16:33N 35°24' E 139°45'0 0.0
2017-Feb-20 15:32N 35°24' E 139°45'0 0.0
2017-Feb-20 14:32N 35°24' E 139°45'0 0.0
2017-Feb-20 13:33N 35°24' E 139°45'0 0.1
2017-Feb-20 12:32N 35°24' E 139°45'0 0.1
2017-Feb-20 11:34N 35°24' E 139°45'0 0.1
2017-Feb-20 10:33N 35°24' E 139°45'0 0.1
2017-Feb-20 09:33N 35°24' E 139°45'0 0.0
2017-Feb-20 08:29N 35°24' E 139°45'0 0.0
2017-Feb-20 07:12N 35°24' E 139°45'0 0.0
2017-Feb-20 06:33N 35°24' E 139°45'0 0.0
2017-Feb-20 05:33N 35°24' E 139°45'0 0.0
2017-Feb-20 04:31N 35°24' E 139°45'0 0.0
2017-Feb-20 03:29N 35°24' E 139°45'0 0.0
2017-Feb-20 02:31N 35°24' E 139°45'0 0.0
2017-Feb-20 01:33N 35°24' E 139°45'0 0.0
2017-Feb-20 00:32N 35°24' E 139°45'6 6.5
2017-Feb-19 23:33N 35°18' E 139°44'1211.5
2017-Feb-19 22:33N 35°07' E 139°45'14 0.4
2017-Feb-18 11:09N 34°52' E 139°47'610.5
2017-Feb-18 10:32N 34°58' E 139°43'1111.0
2017-Feb-18 09:33N 35°09' E 139°45'1010.2
2017-Feb-18 08:34N 35°19' E 139°44'1010.0
2017-Feb-18 07:33N 35°28' E 139°47'4 3.8
2017-Feb-18 06:33N 35°30' E 139°43'0 0.0
2017-Feb-18 05:33N 35°30' E 139°43'0 0.0
2017-Feb-18 04:33N 35°30' E 139°43'0 0.0
2017-Feb-18 03:33N 35°30' E 139°43'0 0.0
2017-Feb-18 02:33N 35°30' E 139°43'0 0.0
2017-Feb-18 01:33N 35°30' E 139°43'0 0.0
2017-Feb-18 00:33N 35°30' E 139°43'5 5.0
2017-Feb-17 23:34N 35°25' E 139°44'2 2.0
2017-Feb-17 22:32N 35°23' E 139°44'0 0.1
2017-Feb-17 21:32N 35°23' E 139°44'0 0.0
2017-Feb-17 20:32N 35°23' E 139°44'0 0.0
2017-Feb-17 19:32N 35°23' E 139°44'0 0.0
2017-Feb-17 18:32N 35°23' E 139°44'0 0.0
2017-Feb-17 17:32N 35°23' E 139°44'0 0.0
2017-Feb-17 16:32N 35°23' E 139°44'0 0.0
2017-Feb-17 15:32N 35°23' E 139°44'5 5.2
2017-Feb-17 14:33N 35°18' E 139°44'1010.3
2017-Feb-17 13:33N 35°08' E 139°46'1110.7
2017-Feb-17 12:33N 34°57' E 139°44'10 0.3
2017-Feb-16 02:31N 35°07' E 139°45'1111.5
2017-Feb-16 01:33N 35°18' E 139°44'1010.3
2017-Feb-16 00:33N 35°28' E 139°47'4 3.6
2017-Feb-15 23:33N 35°30' E 139°43'0 0.0
2017-Feb-15 22:33N 35°30' E 139°43'0 0.0
2017-Feb-15 21:33N 35°30' E 139°43'0 0.0
2017-Feb-15 20:33N 35°30' E 139°43'0 0.0
2017-Feb-15 19:33N 35°30' E 139°43'0 0.0
2017-Feb-15 18:33N 35°30' E 139°43'0 0.0
2017-Feb-15 17:33N 35°30' E 139°43'0 0.0
2017-Feb-15 16:33N 35°30' E 139°43'0 0.0
2017-Feb-15 15:33N 35°30' E 139°43'0 0.0
2017-Feb-15 14:33N 35°30' E 139°43'0 0.0
2017-Feb-15 13:33N 35°30' E 139°43'0 0.0
2017-Feb-15 12:33N 35°30' E 139°43'0 0.0
2017-Feb-15 11:33N 35°30' E 139°43'0 0.0
2017-Feb-15 10:33N 35°30' E 139°43'0 0.0
2017-Feb-15 09:33N 35°30' E 139°43'0 0.0
2017-Feb-15 08:33N 35°30' E 139°43'0 0.0
2017-Feb-15 07:33N 35°30' E 139°43'0 0.0
2017-Feb-15 06:33N 35°30' E 139°43'0 0.0
2017-Feb-15 05:33N 35°30' E 139°43'0 0.0
2017-Feb-15 04:33N 35°30' E 139°43'0 0.0
2017-Feb-15 03:33N 35°30' E 139°43'0 0.0
2017-Feb-15 02:33N 35°30' E 139°43'0 0.0
2017-Feb-15 01:33N 35°30' E 139°43'0 0.0
2017-Feb-15 00:33N 35°30' E 139°43'0 0.0
2017-Feb-14 23:33N 35°30' E 139°43'0 0.0
2017-Feb-14 22:33N 35°30' E 139°43'0 0.0
2017-Feb-14 21:33N 35°30' E 139°43'0 0.0
2017-Feb-14 20:33N 35°30' E 139°43'0 0.0
2017-Feb-14 19:33N 35°30' E 139°43'0 0.0
2017-Feb-14 18:33N 35°30' E 139°43'0 0.0
2017-Feb-14 17:33N 35°30' E 139°43'0 0.0
2017-Feb-14 16:33N 35°30' E 139°43'0 0.0
2017-Feb-14 15:33N 35°30' E 139°43'0 0.0
2017-Feb-14 14:33N 35°30' E 139°43'0 0.0
2017-Feb-14 13:33N 35°30' E 139°43'0 0.0
2017-Feb-14 12:33N 35°30' E 139°43'0 0.0
2017-Feb-14 11:33N 35°30' E 139°43'0 0.0
2017-Feb-14 10:33N 35°30' E 139°43'0 0.0
2017-Feb-14 09:33N 35°30' E 139°43'0 0.0
2017-Feb-14 08:33N 35°30' E 139°43'0 0.0
2017-Feb-14 07:33N 35°30' E 139°43'0 0.0
2017-Feb-14 06:33N 35°30' E 139°43'0 0.0
2017-Feb-14 05:33N 35°30' E 139°43'0 0.0
2017-Feb-14 04:33N 35°30' E 139°43'  
Track history (hours):
 
Tides and Currents Weather Stations Pressure Air Temp Water Temp Dewpoint Dewpoint Depression Visibility Wind Speed Wind Dir Waves Ship Positions

Seneimaru

Last reported at 2017-Feb-24 03:33 UTC. Time now 2017-Feb-24 03:54 UTC.
Position N 35°30' E 139°43'.

Length 72 m; draft 5.9 m.

Type: Cargo ship. MMSI: 431100477.

Date/timePositionNaut miles runAvg speedWind from/ knotsBaromVisibWave heightAir tempDewpointWater temp
2017-Feb-24 03:33N 35°30' E 139°43'0 0.0
2017-Feb-24 02:33N 35°30' E 139°43'0 0.0
2017-Feb-24 01:33N 35°30' E 139°43'0 0.0
2017-Feb-24 00:33N 35°30' E 139°43'0 0.0
2017-Feb-23 23:33N 35°30' E 139°43'0 0.0
2017-Feb-23 22:33N 35°30' E 139°43'4 3.6
2017-Feb-23 21:33N 35°27' E 139°43'5 5.1
2017-Feb-23 20:34N 35°22' E 139°44'0 0.0
2017-Feb-23 19:34N 35°22' E 139°44'0 0.0
2017-Feb-23 18:31N 35°21' E 139°44'0 0.0
2017-Feb-23 17:34N 35°22' E 139°44'0 0.0
2017-Feb-23 16:34N 35°21' E 139°44'0 0.0
2017-Feb-23 15:34N 35°22' E 139°44'0 0.0
2017-Feb-23 14:34N 35°22' E 139°44'0 0.0
2017-Feb-23 13:34N 35°22' E 139°44'0 0.0
2017-Feb-23 12:34N 35°21' E 139°44'0 0.0
2017-Feb-23 11:34N 35°22' E 139°44'0 0.1
2017-Feb-23 10:34N 35°22' E 139°44'0 0.1
2017-Feb-23 09:34N 35°22' E 139°44'0 0.0
2017-Feb-23 08:33N 35°22' E 139°44'0 0.1
2017-Feb-23 07:33N 35°22' E 139°44'0 0.1
2017-Feb-23 06:32N 35°22' E 139°44'0 0.0
2017-Feb-23 05:28N 35°22' E 139°44'0 0.0
2017-Feb-23 04:32N 35°22' E 139°44'0 0.0
2017-Feb-23 03:34N 35°22' E 139°44'0 0.0
2017-Feb-23 02:32N 35°22' E 139°44'0 0.0
2017-Feb-23 01:33N 35°22' E 139°44'0 0.0
2017-Feb-23 00:33N 35°22' E 139°44'0 0.0
2017-Feb-22 23:30N 35°22' E 139°44'0 0.0
2017-Feb-22 22:32N 35°22' E 139°44'0 0.0
2017-Feb-22 21:19N 35°22' E 139°44'1 1.1
2017-Feb-22 20:34N 35°21' E 139°44'1110.9
2017-Feb-22 19:33N 35°10' E 139°46'1212.4
2017-Feb-22 18:33N 34°58' E 139°43'1 0.0
2017-Feb-21 10:33N 34°59' E 139°43'1111.5
2017-Feb-21 09:33N 35°10' E 139°46'1111.0
2017-Feb-21 08:33N 35°21' E 139°43'1010.2
2017-Feb-21 07:33N 35°30' E 139°46'3 2.9
2017-Feb-21 06:33N 35°30' E 139°43'0 0.0
2017-Feb-21 05:33N 35°30' E 139°43'0 0.0
2017-Feb-21 04:33N 35°30' E 139°43'0 0.0
2017-Feb-21 03:33N 35°30' E 139°43'0 0.0
2017-Feb-21 02:33N 35°30' E 139°43'0 0.0
2017-Feb-21 01:33N 35°30' E 139°43'0 0.0
2017-Feb-21 00:33N 35°30' E 139°43'1 1.5
2017-Feb-20 23:34N 35°29' E 139°42'5 5.4
2017-Feb-20 22:34N 35°24' E 139°45'0 0.0
2017-Feb-20 21:33N 35°24' E 139°45'0 0.0
2017-Feb-20 20:33N 35°24' E 139°45'0 0.0
2017-Feb-20 19:33N 35°24' E 139°45'0 0.0
2017-Feb-20 18:33N 35°24' E 139°45'0 0.0
2017-Feb-20 17:33N 35°24' E 139°45'0 0.0
2017-Feb-20 16:33N 35°24' E 139°45'0 0.0
2017-Feb-20 15:32N 35°24' E 139°45'0 0.0
2017-Feb-20 14:32N 35°24' E 139°45'0 0.0
2017-Feb-20 13:33N 35°24' E 139°45'0 0.1
2017-Feb-20 12:32N 35°24' E 139°45'0 0.1
2017-Feb-20 11:34N 35°24' E 139°45'0 0.1
2017-Feb-20 10:33N 35°24' E 139°45'0 0.1
2017-Feb-20 09:33N 35°24' E 139°45'0 0.0
2017-Feb-20 08:29N 35°24' E 139°45'0 0.0
2017-Feb-20 07:12N 35°24' E 139°45'0 0.0
2017-Feb-20 06:33N 35°24' E 139°45'0 0.0
2017-Feb-20 05:33N 35°24' E 139°45'0 0.0
2017-Feb-20 04:31N 35°24' E 139°45'0 0.0
2017-Feb-20 03:29N 35°24' E 139°45'0 0.0
2017-Feb-20 02:31N 35°24' E 139°45'0 0.0
2017-Feb-20 01:33N 35°24' E 139°45'0 0.0
2017-Feb-20 00:32N 35°24' E 139°45'6 6.5
2017-Feb-19 23:33N 35°18' E 139°44'1211.5
2017-Feb-19 22:33N 35°07' E 139°45'14 0.4
2017-Feb-18 11:09N 34°52' E 139°47'610.5
2017-Feb-18 10:32N 34°58' E 139°43'1111.0
2017-Feb-18 09:33N 35°09' E 139°45'1010.2
2017-Feb-18 08:34N 35°19' E 139°44'1010.0
2017-Feb-18 07:33N 35°28' E 139°47'4 3.8
2017-Feb-18 06:33N 35°30' E 139°43'0 0.0
2017-Feb-18 05:33N 35°30' E 139°43'0 0.0
2017-Feb-18 04:33N 35°30' E 139°43'0 0.0
2017-Feb-18 03:33N 35°30' E 139°43'0 0.0
2017-Feb-18 02:33N 35°30' E 139°43'0 0.0
2017-Feb-18 01:33N 35°30' E 139°43'0 0.0
2017-Feb-18 00:33N 35°30' E 139°43'5 5.0
2017-Feb-17 23:34N 35°25' E 139°44'2 2.0
2017-Feb-17 22:32N 35°23' E 139°44'0 0.1
2017-Feb-17 21:32N 35°23' E 139°44'0 0.0
2017-Feb-17 20:32N 35°23' E 139°44'0 0.0
2017-Feb-17 19:32N 35°23' E 139°44'0 0.0
2017-Feb-17 18:32N 35°23' E 139°44'0 0.0
2017-Feb-17 17:32N 35°23' E 139°44'0 0.0
2017-Feb-17 16:32N 35°23' E 139°44'0 0.0
2017-Feb-17 15:32N 35°23' E 139°44'5 5.2
2017-Feb-17 14:33N 35°18' E 139°44'1010.3
2017-Feb-17 13:33N 35°08' E 139°46'1110.7
2017-Feb-17 12:33N 34°57' E 139°44'10 0.3
2017-Feb-16 02:31N 35°07' E 139°45'1111.5
2017-Feb-16 01:33N 35°18' E 139°44'1010.3
2017-Feb-16 00:33N 35°28' E 139°47'4 3.6
2017-Feb-15 23:33N 35°30' E 139°43'0 0.0
2017-Feb-15 22:33N 35°30' E 139°43'0 0.0
2017-Feb-15 21:33N 35°30' E 139°43'0 0.0
2017-Feb-15 20:33N 35°30' E 139°43'0 0.0
2017-Feb-15 19:33N 35°30' E 139°43'0 0.0
2017-Feb-15 18:33N 35°30' E 139°43'0 0.0
2017-Feb-15 17:33N 35°30' E 139°43'0 0.0
2017-Feb-15 16:33N 35°30' E 139°43'0 0.0
2017-Feb-15 15:33N 35°30' E 139°43'0 0.0
2017-Feb-15 14:33N 35°30' E 139°43'0 0.0
2017-Feb-15 13:33N 35°30' E 139°43'0 0.0
2017-Feb-15 12:33N 35°30' E 139°43'0 0.0
2017-Feb-15 11:33N 35°30' E 139°43'0 0.0
2017-Feb-15 10:33N 35°30' E 139°43'0 0.0
2017-Feb-15 09:33N 35°30' E 139°43'0 0.0
2017-Feb-15 08:33N 35°30' E 139°43'0 0.0
2017-Feb-15 07:33N 35°30' E 139°43'0 0.0
2017-Feb-15 06:33N 35°30' E 139°43'0 0.0
2017-Feb-15 05:33N 35°30' E 139°43'0 0.0
2017-Feb-15 04:33N 35°30' E 139°43'0 0.0
2017-Feb-15 03:33N 35°30' E 139°43'0 0.0
2017-Feb-15 02:33N 35°30' E 139°43'0 0.0
2017-Feb-15 01:33N 35°30' E 139°43'0 0.0
2017-Feb-15 00:33N 35°30' E 139°43'0 0.0
2017-Feb-14 23:33N 35°30' E 139°43'0 0.0
2017-Feb-14 22:33N 35°30' E 139°43'0 0.0
2017-Feb-14 21:33N 35°30' E 139°43'0 0.0
2017-Feb-14 20:33N 35°30' E 139°43'0 0.0
2017-Feb-14 19:33N 35°30' E 139°43'0 0.0
2017-Feb-14 18:33N 35°30' E 139°43'0 0.0
2017-Feb-14 17:33N 35°30' E 139°43'0 0.0
2017-Feb-14 16:33N 35°30' E 139°43'0 0.0
2017-Feb-14 15:33N 35°30' E 139°43'0 0.0
2017-Feb-14 14:33N 35°30' E 139°43'0 0.0
2017-Feb-14 13:33N 35°30' E 139°43'0 0.0
2017-Feb-14 12:33N 35°30' E 139°43'0 0.0
2017-Feb-14 11:33N 35°30' E 139°43'0 0.0
2017-Feb-14 10:33N 35°30' E 139°43'0 0.0
2017-Feb-14 09:33N 35°30' E 139°43'0 0.0
2017-Feb-14 08:33N 35°30' E 139°43'0 0.0
2017-Feb-14 07:33N 35°30' E 139°43'0 0.0
2017-Feb-14 06:33N 35°30' E 139°43'0 0.0
2017-Feb-14 05:33N 35°30' E 139°43'0 0.0
2017-Feb-14 04:33N 35°30' E 139°43'  

Dump ship's entire track history